sensor_id;sensor_type;location;lat;lon;timestamp;temperature;humidity
6964;DHT22;3522;50.856;7.278;2023-08-08T00:02:06;13.20;99.90
6964;DHT22;3522;50.856;7.278;2023-08-08T00:04:33;13.20;99.90
6964;DHT22;3522;50.856;7.278;2023-08-08T00:07:00;13.20;99.90
6964;DHT22;3522;50.856;7.278;2023-08-08T00:09:26;13.20;99.90
6964;DHT22;3522;50.856;7.278;2023-08-08T00:11:54;13.30;99.90
6964;DHT22;3522;50.856;7.278;2023-08-08T00:14:22;13.20;99.90
6964;DHT22;3522;50.856;7.278;2023-08-08T00:16:49;13.20;99.90
6964;DHT22;3522;50.856;7.278;2023-08-08T00:19:15;13.20;99.90
6964;DHT22;3522;50.856;7.278;2023-08-08T00:21:42;13.20;99.90
6964;DHT22;3522;50.856;7.278;2023-08-08T00:24:08;13.20;99.90
6964;DHT22;3522;50.856;7.278;2023-08-08T00:26:35;13.20;99.90
6964;DHT22;3522;50.856;7.278;2023-08-08T00:29:03;13.20;99.90
6964;DHT22;3522;50.856;7.278;2023-08-08T00:31:29;13.20;99.90
6964;DHT22;3522;50.856;7.278;2023-08-08T00:33:56;13.10;99.90
6964;DHT22;3522;50.856;7.278;2023-08-08T00:36:23;13.20;99.90
6964;DHT22;3522;50.856;7.278;2023-08-08T00:38:49;13.10;99.90
6964;DHT22;3522;50.856;7.278;2023-08-08T00:41:16;13.10;99.90
6964;DHT22;3522;50.856;7.278;2023-08-08T00:43:42;13.10;99.90
6964;DHT22;3522;50.856;7.278;2023-08-08T00:46:11;13.10;99.90
6964;DHT22;3522;50.856;7.278;2023-08-08T00:48:37;13.10;99.90
6964;DHT22;3522;50.856;7.278;2023-08-08T00:51:04;13.10;99.90
6964;DHT22;3522;50.856;7.278;2023-08-08T00:53:31;13.10;99.90
6964;DHT22;3522;50.856;7.278;2023-08-08T00:55:58;13.10;99.90
6964;DHT22;3522;50.856;7.278;2023-08-08T00:58:24;13.00;99.90
6964;DHT22;3522;50.856;7.278;2023-08-08T01:00:51;13.00;99.90
6964;DHT22;3522;50.856;7.278;2023-08-08T01:03:21;13.00;99.90
6964;DHT22;3522;50.856;7.278;2023-08-08T01:05:48;12.90;99.90
6964;DHT22;3522;50.856;7.278;2023-08-08T01:08:19;13.00;99.90
6964;DHT22;3522;50.856;7.278;2023-08-08T01:10:48;12.90;99.90
6964;DHT22;3522;50.856;7.278;2023-08-08T01:13:16;12.90;99.90
6964;DHT22;3522;50.856;7.278;2023-08-08T01:15:44;12.90;99.90
6964;DHT22;3522;50.856;7.278;2023-08-08T01:18:11;12.90;99.90
6964;DHT22;3522;50.856;7.278;2023-08-08T01:20:41;12.80;99.90
6964;DHT22;3522;50.856;7.278;2023-08-08T01:23:09;12.80;99.90
6964;DHT22;3522;50.856;7.278;2023-08-08T01:25:38;12.80;99.90
6964;DHT22;3522;50.856;7.278;2023-08-08T01:28:06;12.70;99.90
6964;DHT22;3522;50.856;7.278;2023-08-08T01:30:33;12.70;99.90
6964;DHT22;3522;50.856;7.278;2023-08-08T01:32:59;12.70;99.90
6964;DHT22;3522;50.856;7.278;2023-08-08T01:35:27;12.70;99.90
6964;DHT22;3522;50.856;7.278;2023-08-08T01:37:57;12.70;99.90
6964;DHT22;3522;50.856;7.278;2023-08-08T01:40:27;12.70;99.90
6964;DHT22;3522;50.856;7.278;2023-08-08T01:42:56;12.70;99.90
6964;DHT22;3522;50.856;7.278;2023-08-08T01:45:23;12.70;99.90
6964;DHT22;3522;50.856;7.278;2023-08-08T01:47:50;12.70;99.90
6964;DHT22;3522;50.856;7.278;2023-08-08T01:50:17;12.70;99.90
6964;DHT22;3522;50.856;7.278;2023-08-08T01:52:44;12.70;99.90
6964;DHT22;3522;50.856;7.278;2023-08-08T01:55:10;12.70;99.90
6964;DHT22;3522;50.856;7.278;2023-08-08T01:57:37;12.70;99.90
6964;DHT22;3522;50.856;7.278;2023-08-08T02:00:06;12.70;99.90
6964;DHT22;3522;50.856;7.278;2023-08-08T02:02:33;12.70;99.90
6964;DHT22;3522;50.856;7.278;2023-08-08T02:05:01;12.70;99.90
6964;DHT22;3522;50.856;7.278;2023-08-08T02:07:27;12.70;99.90
6964;DHT22;3522;50.856;7.278;2023-08-08T02:09:54;12.70;99.90
6964;DHT22;3522;50.856;7.278;2023-08-08T02:12:20;12.70;99.90
6964;DHT22;3522;50.856;7.278;2023-08-08T02:14:47;12.70;99.90
6964;DHT22;3522;50.856;7.278;2023-08-08T02:17:15;12.70;99.90
6964;DHT22;3522;50.856;7.278;2023-08-08T02:19:41;12.60;99.90
6964;DHT22;3522;50.856;7.278;2023-08-08T02:22:08;12.70;99.90
6964;DHT22;3522;50.856;7.278;2023-08-08T02:24:35;12.60;99.90
6964;DHT22;3522;50.856;7.278;2023-08-08T02:27:02;12.60;99.90
6964;DHT22;3522;50.856;7.278;2023-08-08T02:29:29;12.60;99.90
6964;DHT22;3522;50.856;7.278;2023-08-08T02:31:56;12.50;99.90
6964;DHT22;3522;50.856;7.278;2023-08-08T02:34:24;12.50;99.90
6964;DHT22;3522;50.856;7.278;2023-08-08T02:36:50;12.40;99.90
6964;DHT22;3522;50.856;7.278;2023-08-08T02:39:17;12.40;99.90
6964;DHT22;3522;50.856;7.278;2023-08-08T02:41:43;12.40;99.90
6964;DHT22;3522;50.856;7.278;2023-08-08T02:44:10;12.40;99.90
6964;DHT22;3522;50.856;7.278;2023-08-08T02:46:36;12.40;99.90
6964;DHT22;3522;50.856;7.278;2023-08-08T02:49:03;12.40;99.90
6964;DHT22;3522;50.856;7.278;2023-08-08T02:51:31;12.30;99.90
6964;DHT22;3522;50.856;7.278;2023-08-08T02:53:58;12.30;99.90
6964;DHT22;3522;50.856;7.278;2023-08-08T02:56:24;12.30;99.90
6964;DHT22;3522;50.856;7.278;2023-08-08T02:58:51;12.30;99.90
6964;DHT22;3522;50.856;7.278;2023-08-08T03:01:18;12.30;99.90
6964;DHT22;3522;50.856;7.278;2023-08-08T03:03:44;12.20;99.90
6964;DHT22;3522;50.856;7.278;2023-08-08T03:06:11;12.20;99.90
6964;DHT22;3522;50.856;7.278;2023-08-08T03:08:39;12.20;99.90
6964;DHT22;3522;50.856;7.278;2023-08-08T03:11:05;12.20;99.90
6964;DHT22;3522;50.856;7.278;2023-08-08T03:13:32;12.10;99.90
6964;DHT22;3522;50.856;7.278;2023-08-08T03:15:58;12.10;99.90
6964;DHT22;3522;50.856;7.278;2023-08-08T03:18:25;12.10;99.90
6964;DHT22;3522;50.856;7.278;2023-08-08T03:20:52;12.10;99.90
6964;DHT22;3522;50.856;7.278;2023-08-08T03:23:18;12.00;99.90
6964;DHT22;3522;50.856;7.278;2023-08-08T03:25:46;12.10;99.90
6964;DHT22;3522;50.856;7.278;2023-08-08T03:28:13;12.10;99.90
6964;DHT22;3522;50.856;7.278;2023-08-08T03:30:39;12.00;99.90
6964;DHT22;3522;50.856;7.278;2023-08-08T03:33:06;12.00;99.90
6964;DHT22;3522;50.856;7.278;2023-08-08T03:35:32;12.00;99.90
6964;DHT22;3522;50.856;7.278;2023-08-08T03:37:59;12.00;99.90
6964;DHT22;3522;50.856;7.278;2023-08-08T03:40:25;12.00;99.90
6964;DHT22;3522;50.856;7.278;2023-08-08T03:42:53;12.00;99.90
6964;DHT22;3522;50.856;7.278;2023-08-08T03:45:20;12.00;99.90
6964;DHT22;3522;50.856;7.278;2023-08-08T03:47:47;12.00;99.90
6964;DHT22;3522;50.856;7.278;2023-08-08T03:50:13;12.00;99.90
6964;DHT22;3522;50.856;7.278;2023-08-08T03:52:40;12.00;99.90
6964;DHT22;3522;50.856;7.278;2023-08-08T03:55:06;12.00;99.90
6964;DHT22;3522;50.856;7.278;2023-08-08T03:57:33;11.90;99.90
6964;DHT22;3522;50.856;7.278;2023-08-08T04:00:01;11.90;99.90
6964;DHT22;3522;50.856;7.278;2023-08-08T04:02:29;11.90;99.90
6964;DHT22;3522;50.856;7.278;2023-08-08T04:04:55;11.90;99.90
6964;DHT22;3522;50.856;7.278;2023-08-08T04:07:21;11.90;99.90
6964;DHT22;3522;50.856;7.278;2023-08-08T04:09:47;11.90;99.90
6964;DHT22;3522;50.856;7.278;2023-08-08T04:12:14;11.90;99.90
6964;DHT22;3522;50.856;7.278;2023-08-08T04:14:40;11.90;99.90
6964;DHT22;3522;50.856;7.278;2023-08-08T04:17:08;11.90;99.90
6964;DHT22;3522;50.856;7.278;2023-08-08T04:19:35;11.90;99.90
6964;DHT22;3522;50.856;7.278;2023-08-08T04:22:01;11.90;99.90
6964;DHT22;3522;50.856;7.278;2023-08-08T04:24:28;11.90;99.90
6964;DHT22;3522;50.856;7.278;2023-08-08T04:26:55;11.90;99.90
6964;DHT22;3522;50.856;7.278;2023-08-08T04:29:21;11.90;99.90
6964;DHT22;3522;50.856;7.278;2023-08-08T04:31:48;11.90;99.90
6964;DHT22;3522;50.856;7.278;2023-08-08T04:34:16;11.90;99.90
6964;DHT22;3522;50.856;7.278;2023-08-08T04:36:42;11.90;99.90
6964;DHT22;3522;50.856;7.278;2023-08-08T04:39:09;11.90;99.90
6964;DHT22;3522;50.856;7.278;2023-08-08T04:41:36;11.90;99.90
6964;DHT22;3522;50.856;7.278;2023-08-08T04:44:02;12.00;99.90
6964;DHT22;3522;50.856;7.278;2023-08-08T04:46:29;11.90;99.90
6964;DHT22;3522;50.856;7.278;2023-08-08T04:48:55;11.90;99.90
6964;DHT22;3522;50.856;7.278;2023-08-08T04:51:23;11.90;99.90
6964;DHT22;3522;50.856;7.278;2023-08-08T04:53:50;11.90;99.90
6964;DHT22;3522;50.856;7.278;2023-08-08T04:56:16;11.90;99.90
6964;DHT22;3522;50.856;7.278;2023-08-08T04:58:43;11.90;99.90
6964;DHT22;3522;50.856;7.278;2023-08-08T05:01:09;12.00;99.90
6964;DHT22;3522;50.856;7.278;2023-08-08T05:03:39;12.00;99.90
6964;DHT22;3522;50.856;7.278;2023-08-08T05:06:06;12.00;99.90
6964;DHT22;3522;50.856;7.278;2023-08-08T05:08:34;12.10;99.90
6964;DHT22;3522;50.856;7.278;2023-08-08T05:11:00;12.10;99.90
6964;DHT22;3522;50.856;7.278;2023-08-08T05:13:27;12.20;99.90
6964;DHT22;3522;50.856;7.278;2023-08-08T05:15:53;12.30;99.90
6964;DHT22;3522;50.856;7.278;2023-08-08T05:18:20;12.30;99.90
6964;DHT22;3522;50.856;7.278;2023-08-08T05:20:46;12.30;99.90
6964;DHT22;3522;50.856;7.278;2023-08-08T05:23:13;12.40;99.90
6964;DHT22;3522;50.856;7.278;2023-08-08T05:25:41;12.40;99.90
6964;DHT22;3522;50.856;7.278;2023-08-08T05:28:08;12.40;99.90
6964;DHT22;3522;50.856;7.278;2023-08-08T05:30:34;12.50;99.90
6964;DHT22;3522;50.856;7.278;2023-08-08T05:33:01;12.50;99.90
6964;DHT22;3522;50.856;7.278;2023-08-08T05:35:28;12.50;99.90
6964;DHT22;3522;50.856;7.278;2023-08-08T05:37:54;12.50;99.90
6964;DHT22;3522;50.856;7.278;2023-08-08T05:40:21;12.50;99.90
6964;DHT22;3522;50.856;7.278;2023-08-08T05:42:49;12.50;99.90
6964;DHT22;3522;50.856;7.278;2023-08-08T05:45:15;12.60;99.90
6964;DHT22;3522;50.856;7.278;2023-08-08T05:47:42;12.70;99.90
6964;DHT22;3522;50.856;7.278;2023-08-08T05:50:09;12.70;99.90
6964;DHT22;3522;50.856;7.278;2023-08-08T05:52:36;12.70;99.90
6964;DHT22;3522;50.856;7.278;2023-08-08T05:55:03;12.70;99.90
6964;DHT22;3522;50.856;7.278;2023-08-08T05:57:30;12.70;99.90
6964;DHT22;3522;50.856;7.278;2023-08-08T05:59:58;12.70;99.90
6964;DHT22;3522;50.856;7.278;2023-08-08T06:02:24;12.70;99.90
6964;DHT22;3522;50.856;7.278;2023-08-08T06:04:51;12.70;99.90
6964;DHT22;3522;50.856;7.278;2023-08-08T06:07:18;12.80;99.90
6964;DHT22;3522;50.856;7.278;2023-08-08T06:09:44;12.80;99.90
6964;DHT22;3522;50.856;7.278;2023-08-08T06:12:11;12.80;99.90
6964;DHT22;3522;50.856;7.278;2023-08-08T06:14:37;12.80;99.90
6964;DHT22;3522;50.856;7.278;2023-08-08T06:17:05;12.90;99.90
6964;DHT22;3522;50.856;7.278;2023-08-08T06:19:32;13.00;99.90
6964;DHT22;3522;50.856;7.278;2023-08-08T06:21:58;13.00;99.90
6964;DHT22;3522;50.856;7.278;2023-08-08T06:24:25;13.00;99.90
6964;DHT22;3522;50.856;7.278;2023-08-08T06:26:52;13.20;99.90
6964;DHT22;3522;50.856;7.278;2023-08-08T06:29:18;13.30;99.90
6964;DHT22;3522;50.856;7.278;2023-08-08T06:31:45;13.20;99.90
6964;DHT22;3522;50.856;7.278;2023-08-08T06:34:13;13.30;99.90
6964;DHT22;3522;50.856;7.278;2023-08-08T06:36:40;13.40;99.90
6964;DHT22;3522;50.856;7.278;2023-08-08T06:39:07;13.50;99.90
6964;DHT22;3522;50.856;7.278;2023-08-08T06:41:33;13.60;99.90
6964;DHT22;3522;50.856;7.278;2023-08-08T06:44:00;13.60;99.90
6964;DHT22;3522;50.856;7.278;2023-08-08T06:46:26;13.70;99.90
6964;DHT22;3522;50.856;7.278;2023-08-08T06:48:53;13.80;99.90
6964;DHT22;3522;50.856;7.278;2023-08-08T06:51:24;13.90;99.90
6964;DHT22;3522;50.856;7.278;2023-08-08T06:53:51;13.90;99.90
6964;DHT22;3522;50.856;7.278;2023-08-08T06:56:17;14.00;99.90
6964;DHT22;3522;50.856;7.278;2023-08-08T06:58:44;14.10;99.90
6964;DHT22;3522;50.856;7.278;2023-08-08T07:01:10;14.20;99.90
6964;DHT22;3522;50.856;7.278;2023-08-08T07:03:37;14.30;99.90
6964;DHT22;3522;50.856;7.278;2023-08-08T07:06:04;14.30;99.90
6964;DHT22;3522;50.856;7.278;2023-08-08T07:08:32;14.50;99.90
6964;DHT22;3522;50.856;7.278;2023-08-08T07:10:59;14.50;99.90
6964;DHT22;3522;50.856;7.278;2023-08-08T07:13:25;14.40;99.90
6964;DHT22;3522;50.856;7.278;2023-08-08T07:15:52;14.50;99.90
6964;DHT22;3522;50.856;7.278;2023-08-08T07:18:18;14.60;99.90
6964;DHT22;3522;50.856;7.278;2023-08-08T07:20:45;14.60;99.90
6964;DHT22;3522;50.856;7.278;2023-08-08T07:23:11;14.70;99.90
6964;DHT22;3522;50.856;7.278;2023-08-08T07:25:39;14.80;99.90
6964;DHT22;3522;50.856;7.278;2023-08-08T07:28:06;14.70;99.90
6964;DHT22;3522;50.856;7.278;2023-08-08T07:30:32;14.80;99.90
6964;DHT22;3522;50.856;7.278;2023-08-08T07:32:59;15.00;99.90
6964;DHT22;3522;50.856;7.278;2023-08-08T07:35:26;15.10;99.90
6964;DHT22;3522;50.856;7.278;2023-08-08T07:37:52;15.30;99.90
6964;DHT22;3522;50.856;7.278;2023-08-08T07:40:19;15.60;99.90
6964;DHT22;3522;50.856;7.278;2023-08-08T07:42:48;15.90;99.90
6964;DHT22;3522;50.856;7.278;2023-08-08T07:45:15;16.10;99.90
6964;DHT22;3522;50.856;7.278;2023-08-08T07:47:42;16.20;99.90
6964;DHT22;3522;50.856;7.278;2023-08-08T07:50:09;16.20;99.90
6964;DHT22;3522;50.856;7.278;2023-08-08T07:52:36;16.20;99.90
6964;DHT22;3522;50.856;7.278;2023-08-08T07:55:03;16.20;99.90
6964;DHT22;3522;50.856;7.278;2023-08-08T07:57:30;16.30;99.90
6964;DHT22;3522;50.856;7.278;2023-08-08T07:59:58;16.40;99.90
6964;DHT22;3522;50.856;7.278;2023-08-08T08:02:30;16.60;99.90
6964;DHT22;3522;50.856;7.278;2023-08-08T08:04:57;17.00;99.90
6964;DHT22;3522;50.856;7.278;2023-08-08T08:07:24;17.30;99.90
6964;DHT22;3522;50.856;7.278;2023-08-08T08:09:51;17.60;99.90
6964;DHT22;3522;50.856;7.278;2023-08-08T08:12:19;18.10;99.90
6964;DHT22;3522;50.856;7.278;2023-08-08T08:14:46;18.40;99.90
6964;DHT22;3522;50.856;7.278;2023-08-08T08:17:14;18.30;99.90
6964;DHT22;3522;50.856;7.278;2023-08-08T08:19:40;18.20;99.90
6964;DHT22;3522;50.856;7.278;2023-08-08T08:22:07;17.90;99.90
6964;DHT22;3522;50.856;7.278;2023-08-08T08:24:34;17.80;99.90
6964;DHT22;3522;50.856;7.278;2023-08-08T08:27:01;17.80;99.90
6964;DHT22;3522;50.856;7.278;2023-08-08T08:29:28;17.90;99.90
6964;DHT22;3522;50.856;7.278;2023-08-08T08:31:56;18.10;99.90
6964;DHT22;3522;50.856;7.278;2023-08-08T08:34:24;18.30;99.90
6964;DHT22;3522;50.856;7.278;2023-08-08T08:36:51;18.50;99.90
6964;DHT22;3522;50.856;7.278;2023-08-08T08:39:18;18.50;99.90
6964;DHT22;3522;50.856;7.278;2023-08-08T08:41:45;18.40;99.90
6964;DHT22;3522;50.856;7.278;2023-08-08T08:44:15;18.40;99.90
6964;DHT22;3522;50.856;7.278;2023-08-08T08:46:43;18.60;99.90
6964;DHT22;3522;50.856;7.278;2023-08-08T08:49:13;18.60;99.90
6964;DHT22;3522;50.856;7.278;2023-08-08T08:51:41;18.40;99.90
6964;DHT22;3522;50.856;7.278;2023-08-08T08:54:08;18.30;99.90
6964;DHT22;3522;50.856;7.278;2023-08-08T08:56:36;18.30;99.90
6964;DHT22;3522;50.856;7.278;2023-08-08T08:59:02;18.20;99.90
6964;DHT22;3522;50.856;7.278;2023-08-08T09:01:29;18.20;99.90
6964;DHT22;3522;50.856;7.278;2023-08-08T09:03:56;18.00;99.90
6964;DHT22;3522;50.856;7.278;2023-08-08T09:06:23;18.00;99.90
6964;DHT22;3522;50.856;7.278;2023-08-08T09:08:51;18.00;99.90
6964;DHT22;3522;50.856;7.278;2023-08-08T09:11:18;18.20;99.90
6964;DHT22;3522;50.856;7.278;2023-08-08T09:13:44;18.10;99.90
6964;DHT22;3522;50.856;7.278;2023-08-08T09:16:11;18.30;99.90
6964;DHT22;3522;50.856;7.278;2023-08-08T09:18:38;18.20;99.90
6964;DHT22;3522;50.856;7.278;2023-08-08T09:21:05;18.10;99.90
6964;DHT22;3522;50.856;7.278;2023-08-08T09:23:31;18.00;99.90
6964;DHT22;3522;50.856;7.278;2023-08-08T09:25:59;17.90;99.90
6964;DHT22;3522;50.856;7.278;2023-08-08T09:28:26;17.80;99.90
6964;DHT22;3522;50.856;7.278;2023-08-08T09:30:53;17.90;99.90
6964;DHT22;3522;50.856;7.278;2023-08-08T09:33:20;17.80;99.90
6964;DHT22;3522;50.856;7.278;2023-08-08T09:35:47;17.90;99.90
6964;DHT22;3522;50.856;7.278;2023-08-08T09:38:13;18.10;99.90
6964;DHT22;3522;50.856;7.278;2023-08-08T09:40:40;18.20;99.90
6964;DHT22;3522;50.856;7.278;2023-08-08T09:43:08;18.30;99.90
6964;DHT22;3522;50.856;7.278;2023-08-08T09:45:35;18.30;99.90
6964;DHT22;3522;50.856;7.278;2023-08-08T09:48:02;18.30;99.90
6964;DHT22;3522;50.856;7.278;2023-08-08T09:50:29;18.40;99.90
6964;DHT22;3522;50.856;7.278;2023-08-08T09:52:57;18.60;99.90
6964;DHT22;3522;50.856;7.278;2023-08-08T09:55:24;18.80;99.90
6964;DHT22;3522;50.856;7.278;2023-08-08T09:57:51;18.80;99.90
6964;DHT22;3522;50.856;7.278;2023-08-08T10:00:20;18.80;99.90
6964;DHT22;3522;50.856;7.278;2023-08-08T10:02:46;18.80;99.90
6964;DHT22;3522;50.856;7.278;2023-08-08T10:05:14;18.70;99.90
6964;DHT22;3522;50.856;7.278;2023-08-08T10:07:41;18.80;99.90
6964;DHT22;3522;50.856;7.278;2023-08-08T10:10:09;19.00;99.90
6964;DHT22;3522;50.856;7.278;2023-08-08T10:12:36;18.90;99.90
6964;DHT22;3522;50.856;7.278;2023-08-08T10:15:03;18.90;99.90
6964;DHT22;3522;50.856;7.278;2023-08-08T10:17:35;18.90;99.90
6964;DHT22;3522;50.856;7.278;2023-08-08T10:20:02;18.90;99.90
6964;DHT22;3522;50.856;7.278;2023-08-08T10:22:35;19.10;99.90
6964;DHT22;3522;50.856;7.278;2023-08-08T10:25:03;19.30;99.90
6964;DHT22;3522;50.856;7.278;2023-08-08T10:27:31;19.40;99.90
6964;DHT22;3522;50.856;7.278;2023-08-08T10:30:00;19.50;99.90
6964;DHT22;3522;50.856;7.278;2023-08-08T10:32:27;19.40;99.90
6964;DHT22;3522;50.856;7.278;2023-08-08T10:34:55;19.40;99.90
6964;DHT22;3522;50.856;7.278;2023-08-08T10:37:26;19.60;99.90
6964;DHT22;3522;50.856;7.278;2023-08-08T10:39:53;19.90;99.90
6964;DHT22;3522;50.856;7.278;2023-08-08T10:42:20;20.20;99.90
6964;DHT22;3522;50.856;7.278;2023-08-08T10:44:50;20.50;99.90
6964;DHT22;3522;50.856;7.278;2023-08-08T10:47:21;20.80;99.90
6964;DHT22;3522;50.856;7.278;2023-08-08T10:49:57;20.80;99.90
6964;DHT22;3522;50.856;7.278;2023-08-08T10:52:23;20.50;99.90
6964;DHT22;3522;50.856;7.278;2023-08-08T10:54:51;20.30;99.90
6964;DHT22;3522;50.856;7.278;2023-08-08T10:57:18;20.10;99.90
6964;DHT22;3522;50.856;7.278;2023-08-08T10:59:45;20.30;99.90
6964;DHT22;3522;50.856;7.278;2023-08-08T11:02:11;20.20;99.90
6964;DHT22;3522;50.856;7.278;2023-08-08T11:04:39;20.30;99.90
6964;DHT22;3522;50.856;7.278;2023-08-08T11:07:07;20.30;99.90
6964;DHT22;3522;50.856;7.278;2023-08-08T11:09:34;20.20;99.90
6964;DHT22;3522;50.856;7.278;2023-08-08T11:12:01;20.10;99.90
6964;DHT22;3522;50.856;7.278;2023-08-08T11:14:28;20.10;99.90
6964;DHT22;3522;50.856;7.278;2023-08-08T11:16:54;19.90;99.90
6964;DHT22;3522;50.856;7.278;2023-08-08T11:19:21;19.80;99.90
6964;DHT22;3522;50.856;7.278;2023-08-08T11:21:48;19.70;99.90
6964;DHT22;3522;50.856;7.278;2023-08-08T11:24:16;19.70;99.90
6964;DHT22;3522;50.856;7.278;2023-08-08T11:26:43;19.70;99.90
6964;DHT22;3522;50.856;7.278;2023-08-08T11:29:10;19.60;99.90
6964;DHT22;3522;50.856;7.278;2023-08-08T11:31:37;19.40;99.90
6964;DHT22;3522;50.856;7.278;2023-08-08T11:34:03;19.20;99.90
6964;DHT22;3522;50.856;7.278;2023-08-08T11:36:31;19.30;99.90
6964;DHT22;3522;50.856;7.278;2023-08-08T11:38:58;19.30;99.90
6964;DHT22;3522;50.856;7.278;2023-08-08T11:41:27;19.40;99.90
6964;DHT22;3522;50.856;7.278;2023-08-08T11:43:54;19.40;99.90
6964;DHT22;3522;50.856;7.278;2023-08-08T11:46:25;19.40;99.90
6964;DHT22;3522;50.856;7.278;2023-08-08T11:48:52;19.30;99.90
6964;DHT22;3522;50.856;7.278;2023-08-08T11:51:18;19.20;99.90
6964;DHT22;3522;50.856;7.278;2023-08-08T11:53:48;19.20;99.90
6964;DHT22;3522;50.856;7.278;2023-08-08T11:56:16;19.30;99.90
6964;DHT22;3522;50.856;7.278;2023-08-08T11:58:44;19.20;99.90
6964;DHT22;3522;50.856;7.278;2023-08-08T12:01:11;19.20;99.90
6964;DHT22;3522;50.856;7.278;2023-08-08T12:03:39;19.20;99.90
6964;DHT22;3522;50.856;7.278;2023-08-08T12:06:10;19.20;99.90
6964;DHT22;3522;50.856;7.278;2023-08-08T12:08:37;19.20;99.90
6964;DHT22;3522;50.856;7.278;2023-08-08T12:11:04;19.40;99.90
6964;DHT22;3522;50.856;7.278;2023-08-08T12:13:30;19.40;99.90
6964;DHT22;3522;50.856;7.278;2023-08-08T12:16:02;19.50;99.90
6964;DHT22;3522;50.856;7.278;2023-08-08T12:18:29;19.40;99.90
6964;DHT22;3522;50.856;7.278;2023-08-08T12:20:56;19.40;99.90
6964;DHT22;3522;50.856;7.278;2023-08-08T12:23:23;19.30;99.90
6964;DHT22;3522;50.856;7.278;2023-08-08T12:25:49;19.10;99.90
6964;DHT22;3522;50.856;7.278;2023-08-08T12:28:16;18.90;99.90
6964;DHT22;3522;50.856;7.278;2023-08-08T12:30:43;18.80;99.90
6964;DHT22;3522;50.856;7.278;2023-08-08T12:33:11;18.60;99.90
6964;DHT22;3522;50.856;7.278;2023-08-08T12:35:37;18.40;99.90
6964;DHT22;3522;50.856;7.278;2023-08-08T12:38:04;18.30;99.90
6964;DHT22;3522;50.856;7.278;2023-08-08T12:40:31;18.30;99.90
6964;DHT22;3522;50.856;7.278;2023-08-08T12:42:59;18.20;99.90
6964;DHT22;3522;50.856;7.278;2023-08-08T12:45:25;18.20;99.90
6964;DHT22;3522;50.856;7.278;2023-08-08T12:47:52;18.20;99.90
6964;DHT22;3522;50.856;7.278;2023-08-08T12:50:20;18.20;99.90
6964;DHT22;3522;50.856;7.278;2023-08-08T12:52:46;18.20;99.90
6964;DHT22;3522;50.856;7.278;2023-08-08T12:55:13;18.10;99.90
6964;DHT22;3522;50.856;7.278;2023-08-08T12:57:42;18.10;99.90
6964;DHT22;3522;50.856;7.278;2023-08-08T13:00:09;18.10;99.90
6964;DHT22;3522;50.856;7.278;2023-08-08T13:02:36;18.00;99.90
6964;DHT22;3522;50.856;7.278;2023-08-08T13:05:03;17.80;99.90
6964;DHT22;3522;50.856;7.278;2023-08-08T13:07:33;17.70;99.90
6964;DHT22;3522;50.856;7.278;2023-08-08T13:10:00;17.60;99.90
6964;DHT22;3522;50.856;7.278;2023-08-08T13:12:26;17.60;99.90
6964;DHT22;3522;50.856;7.278;2023-08-08T13:14:53;17.50;99.90
6964;DHT22;3522;50.856;7.278;2023-08-08T13:17:19;17.60;99.90
6964;DHT22;3522;50.856;7.278;2023-08-08T13:19:46;17.80;99.90
6964;DHT22;3522;50.856;7.278;2023-08-08T13:22:12;17.90;99.90
6964;DHT22;3522;50.856;7.278;2023-08-08T13:24:40;18.10;99.90
6964;DHT22;3522;50.856;7.278;2023-08-08T13:27:07;18.20;99.90
6964;DHT22;3522;50.856;7.278;2023-08-08T13:29:33;18.30;99.90
6964;DHT22;3522;50.856;7.278;2023-08-08T13:32:00;18.30;99.90
6964;DHT22;3522;50.856;7.278;2023-08-08T13:34:26;18.20;99.90
6964;DHT22;3522;50.856;7.278;2023-08-08T13:36:53;18.20;99.90
6964;DHT22;3522;50.856;7.278;2023-08-08T13:39:20;18.20;99.90
6964;DHT22;3522;50.856;7.278;2023-08-08T13:41:47;18.20;99.90
6964;DHT22;3522;50.856;7.278;2023-08-08T13:44:14;18.20;99.90
6964;DHT22;3522;50.856;7.278;2023-08-08T13:46:41;18.10;99.90
6964;DHT22;3522;50.856;7.278;2023-08-08T13:49:08;18.10;99.90
6964;DHT22;3522;50.856;7.278;2023-08-08T13:51:34;18.00;99.90
6964;DHT22;3522;50.856;7.278;2023-08-08T13:54:01;17.90;99.90
6964;DHT22;3522;50.856;7.278;2023-08-08T13:56:27;17.90;99.90
6964;DHT22;3522;50.856;7.278;2023-08-08T13:58:55;18.00;99.90
6964;DHT22;3522;50.856;7.278;2023-08-08T14:01:22;18.10;99.90
6964;DHT22;3522;50.856;7.278;2023-08-08T14:03:48;18.10;99.90
6964;DHT22;3522;50.856;7.278;2023-08-08T14:06:15;18.10;99.90
6964;DHT22;3522;50.856;7.278;2023-08-08T14:08:41;18.10;99.90
6964;DHT22;3522;50.856;7.278;2023-08-08T14:11:08;18.10;99.90
6964;DHT22;3522;50.856;7.278;2023-08-08T14:13:35;18.00;99.90
6964;DHT22;3522;50.856;7.278;2023-08-08T14:16:04;18.00;99.90
6964;DHT22;3522;50.856;7.278;2023-08-08T14:18:30;18.00;99.90
6964;DHT22;3522;50.856;7.278;2023-08-08T14:20:57;18.00;99.90
6964;DHT22;3522;50.856;7.278;2023-08-08T14:23:23;18.00;99.90
6964;DHT22;3522;50.856;7.278;2023-08-08T14:25:50;18.10;99.90
6964;DHT22;3522;50.856;7.278;2023-08-08T14:28:16;18.00;99.90
6964;DHT22;3522;50.856;7.278;2023-08-08T14:30:43;17.90;99.90
6964;DHT22;3522;50.856;7.278;2023-08-08T14:33:13;17.80;99.90
6964;DHT22;3522;50.856;7.278;2023-08-08T14:35:39;17.80;99.90
6964;DHT22;3522;50.856;7.278;2023-08-08T14:38:06;17.80;99.90
6964;DHT22;3522;50.856;7.278;2023-08-08T14:40:33;17.90;99.90
6964;DHT22;3522;50.856;7.278;2023-08-08T14:43:00;17.90;99.90
6964;DHT22;3522;50.856;7.278;2023-08-08T14:45:26;17.90;99.90
6964;DHT22;3522;50.856;7.278;2023-08-08T14:47:53;17.90;99.90
6964;DHT22;3522;50.856;7.278;2023-08-08T14:50:21;17.90;99.90
6964;DHT22;3522;50.856;7.278;2023-08-08T14:52:47;17.80;99.90
6964;DHT22;3522;50.856;7.278;2023-08-08T14:55:14;17.90;99.90
6964;DHT22;3522;50.856;7.278;2023-08-08T14:57:41;18.00;99.90
6964;DHT22;3522;50.856;7.278;2023-08-08T15:00:08;18.30;99.90
6964;DHT22;3522;50.856;7.278;2023-08-08T15:02:37;18.50;99.90
6964;DHT22;3522;50.856;7.278;2023-08-08T15:05:04;18.60;99.90
6964;DHT22;3522;50.856;7.278;2023-08-08T15:07:32;18.80;99.90
6964;DHT22;3522;50.856;7.278;2023-08-08T15:09:59;19.00;99.90
6964;DHT22;3522;50.856;7.278;2023-08-08T15:12:25;19.10;99.90
6964;DHT22;3522;50.856;7.278;2023-08-08T15:14:52;19.10;99.90
6964;DHT22;3522;50.856;7.278;2023-08-08T15:17:18;19.20;99.90
6964;DHT22;3522;50.856;7.278;2023-08-08T15:19:45;19.40;99.90
6964;DHT22;3522;50.856;7.278;2023-08-08T15:22:12;19.50;99.90
6964;DHT22;3522;50.856;7.278;2023-08-08T15:24:39;19.50;99.90
6964;DHT22;3522;50.856;7.278;2023-08-08T15:27:06;19.40;99.90
6964;DHT22;3522;50.856;7.278;2023-08-08T15:29:33;19.40;99.90
6964;DHT22;3522;50.856;7.278;2023-08-08T15:31:59;19.70;99.90
6964;DHT22;3522;50.856;7.278;2023-08-08T15:34:26;19.80;99.90
6964;DHT22;3522;50.856;7.278;2023-08-08T15:36:53;19.70;99.90
6964;DHT22;3522;50.856;7.278;2023-08-08T15:39:19;19.60;99.90
6964;DHT22;3522;50.856;7.278;2023-08-08T15:41:49;19.40;99.90
6964;DHT22;3522;50.856;7.278;2023-08-08T15:44:16;19.20;99.90
6964;DHT22;3522;50.856;7.278;2023-08-08T15:46:42;19.20;99.90
6964;DHT22;3522;50.856;7.278;2023-08-08T15:49:09;19.30;99.90
6964;DHT22;3522;50.856;7.278;2023-08-08T15:51:37;19.20;99.90
6964;DHT22;3522;50.856;7.278;2023-08-08T15:54:04;19.10;99.90
6964;DHT22;3522;50.856;7.278;2023-08-08T15:56:31;19.10;99.90
6964;DHT22;3522;50.856;7.278;2023-08-08T15:58:59;19.30;99.90
6964;DHT22;3522;50.856;7.278;2023-08-08T16:01:25;19.40;99.90